Sea Cloud — 9HOM2 — position and weather

sailwx.info

Track history (hours):
 
Tides and Currents Weather Stations Pressure Air Temp Water Temp Dewpoint Dewpoint Depression Visibility Wind Speed Wind Dir Waves Ship Positions

Sea Cloud

Ship's website: http://www.seacloud.com/en/the-ships/sea-cloud.html

Last reported at 2018-Apr-24 18:07 UTC. Time now 2018-Apr-25 02:41 UTC.
Position N 36°48' W 007°56'.

Length 110 m; draft 5.2 m.

Type: Ship. MMSI: 256084000.

Date/timePositionNaut miles runAvg speedWind from/ knotsBaromVisibWave heightAir tempDewpointWater temp
2018-Apr-24 18:07N 36°48' W 007°56'210.6
2018-Apr-24 17:53N 36°48' W 007°59'410.5
2018-Apr-24 17:30N 36°48' W 008°04'510.3
2018-Apr-24 17:00N 36°49' W 008°10'510.2
2018-Apr-24 16:31N 36°49' W 008°16'5 9.7
2018-Apr-24 16:00N 36°49' W 008°22'5 7.4
2018-Apr-24 15:18N 36°49' W 008°29'8 7.0
2018-Apr-24 14:10N 36°50' W 008°39'1 7.0
2018-Apr-24 14:01N 36°50' W 008°40'4 7.3
2018-Apr-24 13:29N 36°50' W 008°45'14 3.8
2018-Apr-24 09:42N 36°54' W 009°02'1 5.1
2018-Apr-24 09:31N 36°55' W 009°02'2 4.6
2018-Apr-24 09:00N 36°57' W 009°02'2 4.8
2018-Apr-24 08:30N 36°60' W 009°03'26 7.7
2018-Apr-24 05:05N 37°26' W 009°08'1 7.4
2018-Apr-24 04:59N 37°26' W 009°08'4 7.3
2018-Apr-24 04:30N 37°30' W 009°09'4 7.5
2018-Apr-24 04:00N 37°34' W 009°10'4 8.3
2018-Apr-24 03:30N 37°38' W 009°11'510.4
2018-Apr-24 03:01N 37°43' W 009°11'510.2
2018-Apr-24 02:31N 37°48' W 009°13'510.6
2018-Apr-24 02:00N 37°53' W 009°14'510.6
2018-Apr-24 01:31N 37°58' W 009°15'510.5
2018-Apr-24 01:00N 38°03' W 009°16'510.5
2018-Apr-24 00:31N 38°08' W 009°17'510.7
2018-Apr-24 00:00N 38°14' W 009°18'510.7
2018-Apr-23 23:30N 38°19' W 009°20'510.6
2018-Apr-23 23:00N 38°24' W 009°21'510.4
2018-Apr-23 22:30N 38°29' W 009°22'510.3
2018-Apr-23 22:01N 38°34' W 009°22'5 9.6
2018-Apr-23 21:30N 38°39' W 009°20'5 8.8
2018-Apr-23 20:59N 38°41' W 009°15'4 8.8
2018-Apr-23 20:30N 38°42' W 009°10'2 4.6
2018-Apr-23 20:01N 38°43' W 009°07'0 0.0
2018-Apr-23 17:29N 38°43' W 009°07'0 0.0
2018-Apr-23 13:47N 38°43' W 009°07'0 0.0
2018-Apr-23 13:29N 38°43' W 009°07'0 0.0
2018-Apr-23 12:53N 38°43' W 009°07'0 0.0
2018-Apr-23 12:29N 38°43' W 009°07'0 0.0
2018-Apr-23 11:56N 38°43' W 009°07'0 0.0
2018-Apr-23 11:29N 38°43' W 009°07'0 0.0
2018-Apr-23 10:56N 38°43' W 009°07'2 5.1
2018-Apr-23 10:30N 38°42' W 009°10'4 7.9
2018-Apr-23 10:00N 38°41' W 009°15'5 9.7
2018-Apr-23 09:30N 38°39' W 009°20'510.8
2018-Apr-23 09:00N 38°34' W 009°24'510.7
2018-Apr-23 08:30N 38°30' W 009°28'5 9.6
2018-Apr-23 08:00N 38°27' W 009°33'5 9.3
2018-Apr-23 07:30N 38°23' W 009°37'5 9.2
2018-Apr-23 06:59N 38°20' W 009°40'5 9.2
2018-Apr-23 06:29N 38°16' W 009°44'5 8.9
2018-Apr-23 05:53N 38°11' W 009°47'6 8.8
2018-Apr-23 05:12N 38°06' W 009°52'2 8.5
2018-Apr-23 04:55N 38°04' W 009°53'  
Track history (hours):
 
Tides and Currents Weather Stations Pressure Air Temp Water Temp Dewpoint Dewpoint Depression Visibility Wind Speed Wind Dir Waves Ship Positions

Sea Cloud

Ship's website: http://www.seacloud.com/en/the-ships/sea-cloud.html

Last reported at 2018-Apr-24 18:07 UTC. Time now 2018-Apr-25 02:41 UTC.
Position N 36°48' W 007°56'.

Length 110 m; draft 5.2 m.

Type: Ship. MMSI: 256084000.

Date/timePositionNaut miles runAvg speedWind from/ knotsBaromVisibWave heightAir tempDewpointWater temp
2018-Apr-24 18:07N 36°48' W 007°56'210.6
2018-Apr-24 17:53N 36°48' W 007°59'410.5
2018-Apr-24 17:30N 36°48' W 008°04'510.3
2018-Apr-24 17:00N 36°49' W 008°10'510.2
2018-Apr-24 16:31N 36°49' W 008°16'5 9.7
2018-Apr-24 16:00N 36°49' W 008°22'5 7.4
2018-Apr-24 15:18N 36°49' W 008°29'8 7.0
2018-Apr-24 14:10N 36°50' W 008°39'1 7.0
2018-Apr-24 14:01N 36°50' W 008°40'4 7.3
2018-Apr-24 13:29N 36°50' W 008°45'14 3.8
2018-Apr-24 09:42N 36°54' W 009°02'1 5.1
2018-Apr-24 09:31N 36°55' W 009°02'2 4.6
2018-Apr-24 09:00N 36°57' W 009°02'2 4.8
2018-Apr-24 08:30N 36°60' W 009°03'26 7.7
2018-Apr-24 05:05N 37°26' W 009°08'1 7.4
2018-Apr-24 04:59N 37°26' W 009°08'4 7.3
2018-Apr-24 04:30N 37°30' W 009°09'4 7.5
2018-Apr-24 04:00N 37°34' W 009°10'4 8.3
2018-Apr-24 03:30N 37°38' W 009°11'510.4
2018-Apr-24 03:01N 37°43' W 009°11'510.2
2018-Apr-24 02:31N 37°48' W 009°13'510.6
2018-Apr-24 02:00N 37°53' W 009°14'510.6
2018-Apr-24 01:31N 37°58' W 009°15'510.5
2018-Apr-24 01:00N 38°03' W 009°16'510.5
2018-Apr-24 00:31N 38°08' W 009°17'510.7
2018-Apr-24 00:00N 38°14' W 009°18'510.7
2018-Apr-23 23:30N 38°19' W 009°20'510.6
2018-Apr-23 23:00N 38°24' W 009°21'510.4
2018-Apr-23 22:30N 38°29' W 009°22'510.3
2018-Apr-23 22:01N 38°34' W 009°22'5 9.6
2018-Apr-23 21:30N 38°39' W 009°20'5 8.8
2018-Apr-23 20:59N 38°41' W 009°15'4 8.8
2018-Apr-23 20:30N 38°42' W 009°10'2 4.6
2018-Apr-23 20:01N 38°43' W 009°07'0 0.0
2018-Apr-23 17:29N 38°43' W 009°07'0 0.0
2018-Apr-23 13:47N 38°43' W 009°07'0 0.0
2018-Apr-23 13:29N 38°43' W 009°07'0 0.0
2018-Apr-23 12:53N 38°43' W 009°07'0 0.0
2018-Apr-23 12:29N 38°43' W 009°07'0 0.0
2018-Apr-23 11:56N 38°43' W 009°07'0 0.0
2018-Apr-23 11:29N 38°43' W 009°07'0 0.0
2018-Apr-23 10:56N 38°43' W 009°07'2 5.1
2018-Apr-23 10:30N 38°42' W 009°10'4 7.9
2018-Apr-23 10:00N 38°41' W 009°15'5 9.7
2018-Apr-23 09:30N 38°39' W 009°20'510.8
2018-Apr-23 09:00N 38°34' W 009°24'510.7
2018-Apr-23 08:30N 38°30' W 009°28'5 9.6
2018-Apr-23 08:00N 38°27' W 009°33'5 9.3
2018-Apr-23 07:30N 38°23' W 009°37'5 9.2
2018-Apr-23 06:59N 38°20' W 009°40'5 9.2
2018-Apr-23 06:29N 38°16' W 009°44'5 8.9
2018-Apr-23 05:53N 38°11' W 009°47'6 8.8
2018-Apr-23 05:12N 38°06' W 009°52'2 8.5
2018-Apr-23 04:55N 38°04' W 009°53'  

Dump ship's entire track history